^^
Datos históricos de la estación: Murcia-Puente Tocinos
Diario Informe para Abril 20, 2019 Unidades:  Ambas    Ingés   Métrico
Diario Semanal Mensual Anual
  Máxima: Mínima: Promedio:
Temperatura: 68.4 °F /  20.2 °C 60.3 °F /  15.7 °C 65.1 °F /  18.4 °C
Punto de rocio: 55.4 °F /  13 °C 51.6 °F /  10.9 °C 53.8 °F /  12.1 °C
Humedad: 76% 56.8% 67%
Velocidad viento: 5.4mph /  8.7km/h - 2.7mph /  4.3km/h
Racha viento: 11mph /  17.7km/h - -
Viento- - Sur
Presión: 29.9 in /  1014.1 hPa 29.8 in /  1007.9 hPa -
Precipitación: 0.05 in /  1.2 mm    
 
 
Tabla de datos para Abril 20, 2019
Hora Temperatura Punto de rocio Presión Viento Velocidad viento Racha viento Humedad Intensidad lluvia(por hora) Nubes
14:14 64.4 °F /  18 °C 55.4 °F /  13 °C 29.8in /  1007.9hPa NE 1.8mph /  2.9km/h 1.8mph /  2.9km/h 72.5% 0in /  0.0mm
14:19 64.6 °F /  18.1 °C 55 °F /  12.8 °C 29.8in /  1010.3hPa NE 1.8mph /  2.9km/h 3.5mph /  5.6km/h 71.5% 0in /  0.0mm
14:24 64.6 °F /  18.1 °C 55.2 °F /  12.9 °C 29.8in /  1009.0hPa ONO 1.8mph /  2.9km/h 5.4mph /  8.7km/h 71.8% 0in /  0.0mm
14:29 64.8 °F /  18.2 °C 55.2 °F /  12.9 °C 29.8in /  1009.0hPa ONO 1.8mph /  2.9km/h 6.9mph /  11.1km/h 71.4% 0in /  0.0mm
14:34 64.9 °F /  18.3 °C 55.4 °F /  13 °C 29.8in /  1009.0hPa NO 2.9mph /  4.7km/h 7mph /  11.3km/h 71.2% 0in /  0.0mm
14:39 64.9 °F /  18.3 °C 55 °F /  12.8 °C 29.8in /  1009.0hPa ONO 3.1mph /  5km/h 6mph /  9.7km/h 70.3% 0in /  0.0mm
14:44 64.9 °F /  18.3 °C 54.7 °F /  12.6 °C 29.8in /  1009.0hPa Oeste 3.1mph /  5km/h 6mph /  9.7km/h 69.6% 0in /  0.0mm
14:49 64.9 °F /  18.3 °C 54.9 °F /  12.7 °C 29.8in /  1009.0hPa Oeste 3.1mph /  5km/h 5.8mph /  9.3km/h 69.8% 0in /  0.0mm
14:54 64.9 °F /  18.3 °C 54.1 °F /  12.3 °C 29.8in /  1009.0hPa Sur 3.1mph /  5km/h 6.9mph /  11.1km/h 68.2% 0in /  0.0mm
14:59 64.9 °F /  18.3 °C 54 °F /  12.2 °C 29.8in /  1008.7hPa Sur 3.1mph /  5km/h 7.4mph /  11.9km/h 67.8% 0in /  0.0mm
15:04 65.1 °F /  18.4 °C 54.5 °F /  12.5 °C 29.8in /  1008.7hPa SSO 4.2mph /  6.7km/h 8.1mph /  13km/h 68.9% 0in /  0.0mm
15:09 64.9 °F /  18.3 °C 54.1 °F /  12.3 °C 29.8in /  1009.5hPa Sur 4.3mph /  6.9km/h 8mph /  12.9km/h 67.9% 0in /  0.0mm
15:14 65.3 °F /  18.5 °C 54.1 °F /  12.3 °C 29.8in /  1009.5hPa ESE 4mph /  6.5km/h 6mph /  9.7km/h 67.3% 0in /  0.0mm
15:19 65.5 °F /  18.6 °C 53.2 °F /  11.8 °C 29.8in /  1009.5hPa OSO 4mph /  6.5km/h 9.2mph /  14.8km/h 64.7% 0in /  0.0mm
15:24 65.7 °F /  18.7 °C 54 °F /  12.2 °C 29.8in /  1009.5hPa Oeste 3.7mph /  5.9km/h 10.7mph /  17.2km/h 65.9% 0in /  0.0mm
15:29 65.7 °F /  18.7 °C 54.3 °F /  12.4 °C 29.8in /  1009.3hPa ONO 3.6mph /  5.8km/h 11mph /  17.7km/h 66.9% 0in /  0.0mm
15:34 65.7 °F /  18.7 °C 54.7 °F /  12.6 °C 29.8in /  1009.3hPa NNO 4.2mph /  6.7km/h 7.4mph /  11.9km/h 67.5% 0in /  0.0mm
15:39 65.5 °F /  18.6 °C 55 °F /  12.8 °C 29.8in /  1009.3hPa ONO 4.3mph /  6.9km/h 7mph /  11.3km/h 69.1% 0in /  0.0mm
15:44 65.3 °F /  18.5 °C 55 °F /  12.8 °C 29.8in /  1008.9hPa Oeste 3.7mph /  6km/h 7mph /  11.3km/h 69.2% 0in /  0.0mm
15:49 65.1 °F /  18.4 °C 54.5 °F /  12.5 °C 29.8in /  1008.9hPa OSO 3.6mph /  5.8km/h 7mph /  11.3km/h 68.6% 0in /  0.0mm
15:54 65.1 °F /  18.4 °C 54.1 °F /  12.3 °C 29.8in /  1009.1hPa OSO 2.6mph /  4.2km/h 5mph /  8km/h 67.6% 0in /  0.0mm
15:59 65.3 °F /  18.5 °C 54.3 °F /  12.4 °C 29.8in /  1009.1hPa ONO 2.4mph /  3.9km/h 5.2mph /  8.4km/h 67.5% 0in /  0.0mm
16:04 65.5 °F /  18.6 °C 54.7 °F /  12.6 °C 29.8in /  1009.1hPa ONO 2.4mph /  3.9km/h 5mph /  8km/h 68.1% 0in /  0.0mm
16:09 65.5 °F /  18.6 °C 54.7 °F /  12.6 °C 29.8in /  1009.1hPa Oeste 2.4mph /  3.9km/h 5mph /  8km/h 68% 0in /  0.0mm
16:14 65.7 °F /  18.7 °C 54.7 °F /  12.6 °C 29.8in /  1009.0hPa ONO 2.1mph /  3.3km/h 4.6mph /  7.4km/h 67.9% 0in /  0.0mm
16:19 65.7 °F /  18.7 °C 54.7 °F /  12.6 °C 29.8in /  1009.0hPa Oeste 2mph /  3.2km/h 6.9mph /  11.1km/h 67.8% 0in /  0.0mm
16:24 65.7 °F /  18.7 °C 54.7 °F /  12.6 °C 29.8in /  1009.4hPa ONO 3.4mph /  5.4km/h 7mph /  11.3km/h 67.7% 0in /  0.0mm
16:29 65.7 °F /  18.7 °C 54.7 °F /  12.6 °C 29.8in /  1009.4hPa Oeste 3.6mph /  5.8km/h 8.1mph /  13km/h 67.3% 0in /  0.0mm
16:34 65.8 °F /  18.8 °C 54.5 °F /  12.5 °C 29.8in /  1009.4hPa Oeste 4.2mph /  6.7km/h 8mph /  12.9km/h 66.8% 0in /  0.0mm
16:39 66 °F /  18.9 °C 54.3 °F /  12.4 °C 29.8in /  1009.4hPa OSO 4.3mph /  6.9km/h 7mph /  11.3km/h 65.8% 0in /  0.0mm
16:44 66.4 °F /  19.1 °C 54.3 °F /  12.4 °C 29.8in /  1009.3hPa Sur 3.7mph /  6km/h 7mph /  11.3km/h 65% 0in /  0.0mm
16:49 66.6 °F /  19.2 °C 54 °F /  12.2 °C 29.8in /  1009.3hPa SSO 3.6mph /  5.8km/h 5.2mph /  8.4km/h 64.1% 0in /  0.0mm
16:54 66.7 °F /  19.3 °C 54 °F /  12.2 °C 29.8in /  1009.3hPa SSO 2.5mph /  4.1km/h 5mph /  8km/h 63.6% 0in /  0.0mm
16:59 67.1 °F /  19.5 °C 54 °F /  12.2 °C 29.8in /  1009.2hPa ESE 2.4mph /  3.9km/h 4.6mph /  7.4km/h 63% 0in /  0.0mm
17:04 67.3 °F /  19.6 °C 53.4 °F /  11.9 °C 29.8in /  1009.2hPa Sur 2.1mph /  3.3km/h 5.9mph /  9.5km/h 61.1% 0in /  0.0mm
17:09 67.5 °F /  19.7 °C 52.5 °F /  11.4 °C 29.8in /  1009.6hPa SO 2mph /  3.2km/h 7.6mph /  12.2km/h 59% 0in /  0.0mm
17:14 67.5 °F /  19.7 °C 52.2 °F /  11.2 °C 29.8in /  1009.6hPa Oeste 4mph /  6.4km/h 8.1mph /  13km/h 57.9% 0in /  0.0mm
17:19 67.5 °F /  19.7 °C 52 °F /  11.1 °C 29.8in /  1009.6hPa NNO 4.3mph /  6.9km/h 6mph /  9.7km/h 57.5% 0in /  0.0mm
17:24 67.6 °F /  19.8 °C 53.8 °F /  12.1 °C 29.8in /  1009.6hPa ENE 2.2mph /  3.6km/h 4.6mph /  7.4km/h 61.2% 0in /  0.0mm
17:29 67.6 °F /  19.8 °C 55.2 °F /  12.9 °C 29.8in /  1009.6hPa Sur 1.8mph /  2.9km/h 5mph /  8km/h 64.6% 0in /  0.0mm
17:34 67.5 °F /  19.7 °C 54.9 °F /  12.7 °C 29.8in /  1009.6hPa SSO 2.3mph /  3.7km/h 5.8mph /  9.3km/h 63.7% 0in /  0.0mm
17:39 67.5 °F /  19.7 °C 54.1 °F /  12.3 °C 29.8in /  1009.8hPa SO 2.4mph /  3.9km/h 6mph /  9.7km/h 62.3% 0in /  0.0mm
17:44 67.5 °F /  19.7 °C 53.2 °F /  11.8 °C 29.8in /  1009.8hPa ONO 2.4mph /  3.9km/h 5mph /  8km/h 60.2% 0in /  0.0mm
17:49 67.5 °F /  19.7 °C 52 °F /  11.1 °C 29.8in /  1009.8hPa Oeste 2.4mph /  3.9km/h 5mph /  8km/h 57.5% 0in /  0.0mm
17:54 67.6 °F /  19.8 °C 51.8 °F /  11 °C 29.8in /  1009.8hPa Oeste 1.9mph /  3km/h 3mph /  4.8km/h 56.8% 0in /  0.0mm
17:59 68.2 °F /  20.1 °C 52.2 °F /  11.2 °C 29.8in /  1009.6hPa Oeste 1.8mph /  2.9km/h 4.6mph /  7.4km/h 56.9% 0in /  0.0mm
18:04 68.4 °F /  20.2 °C 54.3 °F /  12.4 °C 29.8in /  1009.6hPa ESE 1.8mph /  2.9km/h 5mph /  8km/h 61% 0in /  0.0mm
18:09 68 °F /  20 °C 54.7 °F /  12.6 °C 29.8in /  1009.6hPa SE 1.8mph /  2.9km/h 6.9mph /  11.1km/h 62.3% 0in /  0.0mm
18:14 67.6 °F /  19.8 °C 55 °F /  12.8 °C 29.8in /  1009.6hPa SE 3.7mph /  5.9km/h 8.5mph /  13.7km/h 64.1% 0in /  0.0mm
18:19 67.3 °F /  19.6 °C 54.9 °F /  12.7 °C 29.8in /  1009.6hPa SE 4mph /  6.5km/h 9mph /  14.5km/h 64.6% 0in /  0.0mm
18:24 66.9 °F /  19.4 °C 54.5 °F /  12.5 °C 29.8in /  1009.8hPa SSE 4.6mph /  7.4km/h 8mph /  12.9km/h 64.1% 0in /  0.0mm
18:29 66.9 °F /  19.4 °C 54.3 °F /  12.4 °C 29.8in /  1009.8hPa SSE 4.7mph /  7.6km/h 6.9mph /  11.1km/h 64.1% 0in /  0.0mm
18:34 66.9 °F /  19.4 °C 54.3 °F /  12.4 °C 29.8in /  1009.8hPa SSE 4.1mph /  6.6km/h 7mph /  11.3km/h 64% 0in /  0.0mm
18:39 66.9 °F /  19.4 °C 54.1 °F /  12.3 °C 29.8in /  1010.1hPa Sur 4mph /  6.5km/h 6mph /  9.7km/h 63.5% 0in /  0.0mm
18:44 67.3 °F /  19.6 °C 54.3 °F /  12.4 °C 29.8in /  1010.1hPa SSO 3.2mph /  5.2km/h 5mph /  8km/h 63% 0in /  0.0mm
18:49 67.6 °F /  19.8 °C 53.8 °F /  12.1 °C 29.8in /  1010.1hPa OSO 3.1mph /  5km/h 3.6mph /  5.8km/h 61.2% 0in /  0.0mm
18:54 68 °F /  20 °C 53.8 °F /  12.1 °C 29.8in /  1010.1hPa SO 2.2mph /  3.5km/h 5.4mph /  8.7km/h 60.3% 0in /  0.0mm
18:59 68.2 °F /  20.1 °C 53.1 °F /  11.7 °C 29.8in /  1009.9hPa OSO 2mph /  3.2km/h 6mph /  9.7km/h 58.5% 0in /  0.0mm
19:04 68.2 °F /  20.1 °C 53.6 °F /  12 °C 29.8in /  1009.9hPa Oeste 3mph /  4.8km/h 6mph /  9.7km/h 59.7% 0in /  0.0mm
19:09 67.8 °F /  19.9 °C 53.4 °F /  11.9 °C 29.8in /  1010.1hPa Oeste 3.1mph /  5km/h 5mph /  8km/h 59.9% 0in /  0.0mm
19:14 67.6 °F /  19.8 °C 52.3 °F /  11.3 °C 29.8in /  1010.1hPa OSO 2.2mph /  3.5km/h 5.9mph /  9.5km/h 57.9% 0in /  0.0mm
19:19 67.5 °F /  19.7 °C 51.8 °F /  11 °C 29.8in /  1010.1hPa SO 2mph /  3.2km/h 6mph /  9.7km/h 56.9% 0in /  0.0mm
19:24 67.5 °F /  19.7 °C 51.6 °F /  10.9 °C 29.8in /  1010.7hPa Sur 2.7mph /  4.4km/h 5.4mph /  8.7km/h 56.8% 0in /  0.0mm
19:29 67.5 °F /  19.7 °C 52.2 °F /  11.2 °C 29.8in /  1010.7hPa SE 2.9mph /  4.7km/h 6mph /  9.7km/h 57.9% 0in /  0.0mm
19:34 67.3 °F /  19.6 °C 54 °F /  12.2 °C 29.8in /  1010.7hPa SE 3mph /  4.9km/h 9.7mph /  15.6km/h 62.1% 0in /  0.0mm
19:39 66.6 °F /  19.2 °C 54.5 °F /  12.5 °C 29.9in /  1010.9hPa SSE 3.1mph /  5km/h 10mph /  16.1km/h 65% 0in /  0.0mm
19:44 66 °F /  18.9 °C 54.3 °F /  12.4 °C 29.9in /  1010.9hPa Sur 5.1mph /  8.2km/h 8.1mph /  13km/h 65.9% 0in /  0.0mm
19:49 65.8 °F /  18.8 °C 53.8 °F /  12.1 °C 29.9in /  1010.9hPa SSO 5.4mph /  8.7km/h 8mph /  12.9km/h 65.2% 0in /  0.0mm
19:54 65.8 °F /  18.8 °C 53.8 °F /  12.1 °C 29.9in /  1010.9hPa SO 4.8mph /  7.8km/h 7mph /  11.3km/h 65% 0in /  0.0mm
19:59 65.8 °F /  18.8 °C 53.4 °F /  11.9 °C 29.9in /  1010.9hPa SO 4.7mph /  7.6km/h 6mph /  9.7km/h 64.3% 0in /  0.0mm
20:04 65.8 °F /  18.8 °C 53.2 °F /  11.8 °C 29.9in /  1010.9hPa SO 3.7mph /  6km/h 6mph /  9.7km/h 63.8% 0in /  0.0mm
20:09 65.8 °F /  18.8 °C 53.1 °F /  11.7 °C 29.9in /  1011.0hPa SSO 3.6mph /  5.8km/h 6mph /  9.7km/h 63% 0in /  0.0mm
20:14 66 °F /  18.9 °C 52.7 °F /  11.5 °C 29.9in /  1011.0hPa SSO 3.2mph /  5.1km/h 6.2mph /  10km/h 62.2% 0in /  0.0mm
20:19 66.2 °F /  19 °C 52.5 °F /  11.4 °C 29.9in /  1011.0hPa SSO 3.1mph /  5km/h 6mph /  9.7km/h 61.5% 0in /  0.0mm
20:24 66.4 °F /  19.1 °C 52.5 °F /  11.4 °C 29.9in /  1011.5hPa SSE 3.5mph /  5.7km/h 6mph /  9.7km/h 61.1% 0in /  0.0mm
20:29 66.4 °F /  19.1 °C 53.1 °F /  11.7 °C 29.9in /  1011.5hPa SE 3.6mph /  5.8km/h 6.9mph /  11.1km/h 62% 0in /  0.0mm
20:34 66 °F /  18.9 °C 53.4 °F /  11.9 °C 29.9in /  1011.5hPa SE 3.9mph /  6.3km/h 7mph /  11.3km/h 64.1% 0in /  0.0mm
20:39 65.5 °F /  18.6 °C 52.9 °F /  11.6 °C 29.9in /  1011.5hPa SSE 4mph /  6.5km/h 6mph /  9.7km/h 63.8% 0in /  0.0mm
20:44 65.3 °F /  18.5 °C 52.5 °F /  11.4 °C 29.9in /  1011.5hPa Sur 3.7mph /  5.9km/h 6mph /  9.7km/h 63.4% 0in /  0.0mm
20:49 65.1 °F /  18.4 °C 52.3 °F /  11.3 °C 29.9in /  1011.5hPa Sur 3.6mph /  5.8km/h 5mph /  8km/h 63.2% 0in /  0.0mm
20:54 65.1 °F /  18.4 °C 52.3 °F /  11.3 °C 29.9in /  1011.6hPa Sur 3mph /  4.8km/h 5mph /  8km/h 63.2% 0in /  0.0mm
20:59 65.1 °F /  18.4 °C 53.1 °F /  11.7 °C 29.9in /  1011.6hPa Sur 2.9mph /  4.7km/h 3.6mph /  5.8km/h 64.8% 0in /  0.0mm
21:04 65.1 °F /  18.4 °C 53.1 °F /  11.7 °C 29.9in /  1011.6hPa Sur 2.1mph /  3.3km/h 4.6mph /  7.4km/h 65% 0in /  0.0mm
21:09 65.1 °F /  18.4 °C 53.1 °F /  11.7 °C 29.9in /  1012.0hPa SSE 2mph /  3.2km/h 5mph /  8km/h 65.1% 0in /  0.0mm
21:14 65.1 °F /  18.4 °C 53.4 °F /  11.9 °C 29.9in /  1012.0hPa SSE 2.8mph /  4.5km/h 5mph /  8km/h 65.9% 0in /  0.0mm
21:19 65.1 °F /  18.4 °C 53.4 °F /  11.9 °C 29.9in /  1012.0hPa SSE 2.9mph /  4.7km/h 4mph /  6.4km/h 66.1% 0in /  0.0mm
21:24 64.9 °F /  18.3 °C 53.6 °F /  12 °C 29.9in /  1012.1hPa SSE 1.6mph /  2.6km/h 2mph /  3.2km/h 67% 0in /  0.0mm
21:29 64.8 °F /  18.2 °C 53.6 °F /  12 °C 29.9in /  1012.1hPa SSE 1.4mph /  2.2km/h 2.4mph /  3.9km/h 67.3% 0in /  0.0mm
21:34 64.6 °F /  18.1 °C 54 °F /  12.2 °C 29.9in /  1012.1hPa SSE 0.2mph /  0.4km/h 3.1mph /  5km/h 68.6% 0in /  0.0mm
21:39 64.2 °F /  17.9 °C 53.8 °F /  12.1 °C 29.9in /  1012.3hPa Calm   3.5mph /  5.6km/h 69% 0in /  0.0mm
21:44 64 °F /  17.8 °C 54 °F /  12.2 °C 29.9in /  1012.3hPa NO 1.7mph /  2.7km/h 3mph /  4.8km/h 69.8% 0in /  0.0mm
21:49 63.7 °F /  17.6 °C 54.1 °F /  12.3 °C 29.9in /  1012.3hPa North 2mph /  3.2km/h 4.7mph /  7.6km/h 71% 0in /  0.0mm
21:54 63.1 °F /  17.3 °C 54 °F /  12.2 °C 29.9in /  1012.7hPa NE 2.4mph /  3.8km/h 5mph /  8km/h 72.1% 0in /  0.0mm
21:59 62.8 °F /  17.1 °C 54.1 °F /  12.3 °C 29.9in /  1012.7hPa North 2.4mph /  3.9km/h 5mph /  8km/h 73.3% 0in /  0.0mm
22:04 62.6 °F /  17 °C 54.1 °F /  12.3 °C 29.9in /  1012.7hPa NNE 2.4mph /  3.9km/h 5mph /  8km/h 74% 0in /  0.0mm
22:09 62.4 °F /  16.9 °C 54 °F /  12.2 °C 29.9in /  1012.8hPa NNE 2.4mph /  3.9km/h 2.9mph /  4.7km/h 74% 0in /  0.0mm
22:14 62.4 °F /  16.9 °C 54 °F /  12.2 °C 29.9in /  1012.8hPa NNE 1.6mph /  2.5km/h 3.6mph /  5.8km/h 73.7% 0in /  0.0mm
22:19 62.4 °F /  16.9 °C 54 °F /  12.2 °C 29.9in /  1012.8hPa NNE 1.4mph /  2.2km/h 4mph /  6.4km/h 74% 0in /  0.0mm
22:24 62.2 °F /  16.8 °C 53.8 °F /  12.1 °C 29.9in /  1013.0hPa NNE 1.9mph /  3.1km/h 3.5mph /  5.6km/h 73.8% 0in /  0.0mm
22:29 62.2 °F /  16.8 °C 53.4 °F /  11.9 °C 29.9in /  1013.0hPa NNE 2mph /  3.2km/h 3mph /  4.8km/h 73% 0in /  0.0mm
22:34 62.2 °F /  16.8 °C 53.6 °F /  12 °C 29.9in /  1013.0hPa NNE 1.5mph /  2.4km/h   73.3% 0in /  0.0mm
22:39 62.1 °F /  16.7 °C 53.6 °F /  12 °C 29.9in /  1013.3hPa NNE 1.4mph /  2.2km/h 1.4mph /  2.3km/h 73.6% 0in /  0.0mm
22:44 62.2 °F /  16.8 °C 54 °F /  12.2 °C 29.9in /  1013.3hPa NNE 0.2mph /  0.3km/h 1.4mph /  2.3km/h 74.4% 0in /  0.0mm
22:49 62.2 °F /  16.8 °C 53.8 °F /  12.1 °C 29.9in /  1013.3hPa Calm   2.3mph /  3.7km/h 74.1% 0in /  0.0mm
22:54 62.2 °F /  16.8 °C 53.6 °F /  12 °C 29.9in /  1013.5hPa Calm   2mph /  3.2km/h 73.3% 0in /  0.0mm
22:59 62.2 °F /  16.8 °C 54 °F /  12.2 °C 29.9in /  1013.5hPa Calm   3.6mph /  5.8km/h 74.2% 0in /  0.0mm
23:04 62.1 °F /  16.7 °C 53.4 °F /  11.9 °C 29.9in /  1013.5hPa NE 1.2mph /  2km/h 4mph /  6.4km/h 73.1% 0in /  0.0mm
23:09 62.1 °F /  16.7 °C 53.2 °F /  11.8 °C 29.9in /  1013.9hPa NE 1.4mph /  2.2km/h 4mph /  6.4km/h 72.9% 0in /  0.0mm
23:14 61.9 °F /  16.6 °C 53.2 °F /  11.8 °C 29.9in /  1013.9hPa ENE 1.7mph /  2.8km/h 5mph /  8km/h 73.2% 0in /  0.0mm
23:19 61.5 °F /  16.4 °C 53.1 °F /  11.7 °C 29.9in /  1013.9hPa ENE 1.8mph /  2.9km/h 5mph /  8km/h 73.5% 0in /  0.0mm
23:24 61.3 °F /  16.3 °C 52.5 °F /  11.4 °C 29.9in /  1014.0hPa ENE 2mph /  3.2km/h 4.6mph /  7.4km/h 72.9% 0in /  0.0mm
23:29 61.2 °F /  16.2 °C 52.3 °F /  11.3 °C 29.9in /  1014.0hPa Este 2mph /  3.2km/h 5mph /  8km/h 73% 0in /  0.0mm
23:34 61 °F /  16.1 °C 52.3 °F /  11.3 °C 29.9in /  1014.0hPa Este 2.4mph /  3.8km/h 4.6mph /  7.4km/h 73.2% 0in /  0.0mm
23:39 60.8 °F /  16 °C 52.5 °F /  11.4 °C 29.9in /  1014.1hPa Este 2.4mph /  3.9km/h 5mph /  8km/h 74% 0in /  0.0mm
23:44 60.6 °F /  15.9 °C 52.5 °F /  11.4 °C 29.9in /  1014.1hPa Este 2.1mph /  3.3km/h 4mph /  6.4km/h 74.7% 0in /  0.0mm
23:49 60.4 °F /  15.8 °C 52.7 °F /  11.5 °C 29.9in /  1014.1hPa Este 2mph /  3.2km/h 4mph /  6.4km/h 75.8% 0in /  0.0mm
23:54 60.4 °F /  15.8 °C 52.7 °F /  11.5 °C 29.9in /  1014.1hPa ESE 2mph /  3.2km/h 5mph /  8km/h 76% 0in /  0.0mm
23:59 60.3 °F /  15.7 °C 52.5 °F /  11.4 °C 29.9in /  1013.9hPa SSE 2mph /  3.2km/h 7.4mph /  11.9km/h 75.6% 0in /  0.0mm
Murcia-Puente Tocinos, España
Compliments of Weather Underground - 2 mb

La estación de MeteoMurcia.com, publica sus datos en los siguientes proyectos:

Weather Underground PWS IMURCIAP2 Meteoclimatic www.awekas.at

W3Counter
Web Analytics